TimeMDT,TemperatureF,Dew PointF,Humidity,Sea Level PressureIn,VisibilityMPH,Wind Direction,Wind SpeedMPH,Gust SpeedMPH,PrecipitationIn,Events,Conditions,WindDirDegrees,DateUTC
12:55 AM,41.0,34.0,76,30.11,10.0,West,3.5,-,N/A,,Clear,280,2012-10-30 06:55:00
1:55 AM,39.0,32.0,76,30.10,10.0,Calm,Calm,-,N/A,,Clear,0,2012-10-30 07:55:00
2:55 AM,39.0,32.0,76,30.11,10.0,SSW,3.5,-,N/A,,Clear,210,2012-10-30 08:55:00
3:55 AM,37.9,32.0,79,30.11,10.0,Calm,Calm,-,N/A,,Clear,0,2012-10-30 09:55:00
4:55 AM,35.1,30.9,85,30.11,10.0,Calm,Calm,-,N/A,,Clear,0,2012-10-30 10:55:00
5:55 AM,37.9,33.1,83,30.12,10.0,Calm,Calm,-,N/A,,Clear,0,2012-10-30 11:55:00
6:55 AM,36.0,30.9,82,30.13,10.0,Calm,Calm,-,N/A,,Mostly Cloudy,0,2012-10-30 12:55:00
7:55 AM,36.0,32.0,86,30.14,10.0,Calm,Calm,-,N/A,,Scattered Clouds,0,2012-10-30 13:55:00
8:55 AM,39.0,33.1,79,30.14,10.0,Calm,Calm,-,N/A,,Scattered Clouds,0,2012-10-30 14:55:00
9:55 AM,39.9,35.1,83,30.15,10.0,Calm,Calm,-,N/A,,Overcast,0,2012-10-30 15:55:00
11:55 AM,48.9,35.1,59,30.09,10.0,Calm,Calm,-,N/A,,Clear,0,2012-10-30 17:55:00
12:55 PM,50.0,36.0,59,30.09,10.0,NNW,3.5,-,N/A,,Overcast,340,2012-10-30 18:55:00
1:55 PM,55.0,35.1,47,30.04,10.0,Variable,3.5,-,N/A,,Mostly Cloudy,0,2012-10-30 19:55:00
2:55 PM,55.9,32.0,40,30.01,10.0,Calm,Calm,-,N/A,,Partly Cloudy,0,2012-10-30 20:55:00
3:55 PM,57.9,33.1,39,30.00,10.0,Calm,Calm,-,N/A,,Clear,0,2012-10-30 21:55:00
4:55 PM,63.0,32.0,31,29.99,10.0,West,9.2,-,N/A,,Clear,260,2012-10-30 22:55:00
5:55 PM,57.0,33.1,40,29.99,10.0,Calm,Calm,-,N/A,,Clear,0,2012-10-30 23:55:00
6:55 PM,55.0,30.9,40,30.02,10.0,WSW,6.9,-,N/A,,Clear,240,2012-10-31 00:55:00
7:55 PM,48.0,34.0,58,30.06,10.0,Calm,Calm,-,N/A,,Clear,0,2012-10-31 01:55:00
8:55 PM,48.0,32.0,54,30.05,10.0,ESE,4.6,-,N/A,,Clear,120,2012-10-31 02:55:00
9:55 PM,46.9,32.0,56,30.06,10.0,Calm,Calm,-,N/A,,Clear,0,2012-10-31 03:55:00
11:55 PM,44.1,32.0,63,30.05,10.0,Calm,Calm,-,N/A,,Clear,0,2012-10-31 05:55:00